createdAt,value
2018-01-29T00:01:43.960Z,2.40
2018-01-29T00:04:12.069Z,2.70
2018-01-29T00:06:40.363Z,2.40
2018-01-29T00:09:08.484Z,2.50
2018-01-29T00:11:37.372Z,2.60
2018-01-29T00:14:05.494Z,2.60
2018-01-29T00:16:33.660Z,2.40
2018-01-29T00:19:01.803Z,2.33
2018-01-29T00:21:30.683Z,2.30
2018-01-29T00:23:58.791Z,2.60
2018-01-29T00:26:26.956Z,2.03
2018-01-29T00:28:55.844Z,2.10
2018-01-29T00:31:24.723Z,2.10
2018-01-29T00:33:53.739Z,2.30
2018-01-29T00:36:21.847Z,2.20
2018-01-29T00:38:49.993Z,2.10
2018-01-29T00:41:18.111Z,2.10
2018-01-29T00:43:46.223Z,2.20
2018-01-29T00:46:14.395Z,2.30
2018-01-29T00:48:42.511Z,2.50
2018-01-29T00:51:10.649Z,2.10
2018-01-29T00:53:38.827Z,2.20
2018-01-29T00:56:06.931Z,2.22
2018-01-29T00:58:35.095Z,2.25
2018-01-29T01:01:03.223Z,2.30
2018-01-29T01:03:32.097Z,2.30
2018-01-29T01:06:00.991Z,2.55
2018-01-29T01:08:29.883Z,2.62
2018-01-29T01:10:58.799Z,2.72
2018-01-29T01:13:26.925Z,2.70
2018-01-29T01:15:55.037Z,2.90
2018-01-29T01:18:23.171Z,2.70
2018-01-29T01:20:51.343Z,3.10
2018-01-29T01:23:19.458Z,3.40
2018-01-29T01:25:47.635Z,3.33
2018-01-29T01:28:15.829Z,3.10
2018-01-29T01:30:43.943Z,3.42
2018-01-29T01:33:13.575Z,3.25
2018-01-29T01:35:42.695Z,3.30
2018-01-29T01:38:10.825Z,3.87
2018-01-29T01:40:38.943Z,3.22
2018-01-29T01:43:07.075Z,3.15
2018-01-29T01:45:35.963Z,3.55
2018-01-29T01:48:05.881Z,3.00
2018-01-29T01:50:34.784Z,3.15
2018-01-29T01:53:03.662Z,2.95
2018-01-29T01:55:31.786Z,2.97
2018-01-29T01:57:59.919Z,2.70
2018-01-29T02:00:28.903Z,2.83
2018-01-29T02:02:57.802Z,2.78
2018-01-29T02:05:26.706Z,2.70
2018-01-29T02:07:54.834Z,2.83
2018-01-29T02:10:23.432Z,2.75
2018-01-29T02:12:51.540Z,2.85
2018-01-29T02:15:19.710Z,3.03
2018-01-29T02:17:47.842Z,2.80
2018-01-29T02:20:16.158Z,2.97
2018-01-29T02:22:45.027Z,3.42
2018-01-29T02:25:13.902Z,2.95
2018-01-29T02:27:42.038Z,3.30
2018-01-29T02:30:10.174Z,3.17
2018-01-29T02:32:39.053Z,3.22
2018-01-29T02:35:07.929Z,3.78
2018-01-29T02:37:37.562Z,3.10
2018-01-29T02:40:06.658Z,3.28
2018-01-29T02:42:35.535Z,3.37
2018-01-29T02:45:03.642Z,3.53
2018-01-29T02:47:31.768Z,3.42
2018-01-29T02:50:00.079Z,3.42
2018-01-29T02:52:28.948Z,3.60
2018-01-29T02:54:57.830Z,3.58
2018-01-29T02:57:25.946Z,3.85
2018-01-29T02:59:54.118Z,3.80
2018-01-29T03:02:22.232Z,3.42
2018-01-29T03:04:50.338Z,4.20
2018-01-29T03:07:18.494Z,4.03
2018-01-29T03:09:46.692Z,3.85
2018-01-29T03:12:15.563Z,3.45
2018-01-29T03:14:43.687Z,3.62
2018-01-29T03:17:11.846Z,3.40
2018-01-29T03:19:40.004Z,3.00
2018-01-29T03:22:08.119Z,4.28
2018-01-29T03:24:36.274Z,3.25
2018-01-29T03:27:04.384Z,2.90
2018-01-29T03:29:32.585Z,3.08
2018-01-29T03:32:01.484Z,3.17
2018-01-29T03:34:30.364Z,3.22
2018-01-29T03:36:59.253Z,2.90
2018-01-29T03:39:28.263Z,2.50
2018-01-29T03:41:56.386Z,2.90
2018-01-29T03:44:24.500Z,3.05
2018-01-29T03:46:53.446Z,2.95
2018-01-29T03:49:22.343Z,2.92
2018-01-29T03:51:50.463Z,2.90
2018-01-29T03:54:18.579Z,3.12
2018-01-29T03:56:46.695Z,3.03
2018-01-29T03:59:15.584Z,2.62
2018-01-29T04:01:44.596Z,2.53
2018-01-29T04:04:12.716Z,2.78
2018-01-29T04:06:40.835Z,2.80
2018-01-29T04:09:08.966Z,2.53
2018-01-29T04:11:37.083Z,2.50
2018-01-29T04:14:05.264Z,3.33
2018-01-29T04:16:33.383Z,2.60
2018-01-29T04:19:01.633Z,2.65
2018-01-29T04:21:29.759Z,2.30
2018-01-29T04:23:58.651Z,3.08
2018-01-29T04:26:27.567Z,2.80
2018-01-29T04:28:56.087Z,3.05
2018-01-29T04:31:24.275Z,2.80
2018-01-29T04:33:52.417Z,2.40
2018-01-29T04:36:20.499Z,2.55
2018-01-29T04:38:48.637Z,2.65
2018-01-29T04:41:16.761Z,3.08
2018-01-29T04:43:46.391Z,2.92
2018-01-29T04:46:20.125Z,2.53
2018-01-29T04:48:48.245Z,2.92
2018-01-29T04:51:16.369Z,2.80
2018-01-29T04:53:44.487Z,2.70
2018-01-29T04:56:12.621Z,2.75
2018-01-29T04:58:40.732Z,2.53
2018-01-29T05:01:08.855Z,2.55
2018-01-29T05:03:36.982Z,3.00
2018-01-29T05:06:05.118Z,3.03
2018-01-29T05:08:33.239Z,2.83
2018-01-29T05:11:02.156Z,2.75
2018-01-29T05:13:31.047Z,3.17
2018-01-29T05:15:59.930Z,2.95
2018-01-29T05:18:28.834Z,2.95
2018-01-29T05:20:57.011Z,3.17
2018-01-29T05:23:25.143Z,2.83
2018-01-29T05:25:53.257Z,3.20
2018-01-29T05:28:21.375Z,2.87
2018-01-29T05:30:49.531Z,2.90
2018-01-29T05:33:17.646Z,2.83
2018-01-29T05:38:48.134Z,2.60
2018-01-29T05:41:16.292Z,2.30
2018-01-29T05:43:44.412Z,2.90
2018-01-29T05:46:12.530Z,2.50
2018-01-29T05:48:40.654Z,2.60
2018-01-29T05:51:08.782Z,2.70
2018-01-29T05:53:36.952Z,2.65
2018-01-29T05:56:05.076Z,2.62
2018-01-29T05:58:33.296Z,2.83
2018-01-29T06:01:02.233Z,2.92
2018-01-29T06:03:30.360Z,2.47
2018-01-29T06:05:59.228Z,2.17
2018-01-29T06:08:28.128Z,2.55
2018-01-29T06:10:57.022Z,2.33
2018-01-29T06:13:25.898Z,2.58
2018-01-29T06:15:54.066Z,2.30
2018-01-29T06:18:22.174Z,1.80
2018-01-29T06:20:50.334Z,2.30
2018-01-29T06:23:19.226Z,2.10
2018-01-29T06:25:47.350Z,2.30
2018-01-29T06:28:15.511Z,2.00
2018-01-29T06:30:43.628Z,2.33
2018-01-29T06:33:12.508Z,1.92
2018-01-29T06:35:40.616Z,1.67
2018-01-29T06:38:08.780Z,1.60
2018-01-29T06:40:37.702Z,1.67
2018-01-29T06:43:05.849Z,1.50
2018-01-29T06:45:33.954Z,1.65
2018-01-29T06:48:02.072Z,1.65
2018-01-29T06:50:30.266Z,1.75
2018-01-29T06:52:58.388Z,1.75
2018-01-29T06:55:26.500Z,1.60
2018-01-29T06:57:55.388Z,1.70
2018-01-29T07:00:24.285Z,1.85
2018-01-29T07:02:53.246Z,1.48
2018-01-29T07:05:22.328Z,1.37
2018-01-29T07:07:50.448Z,1.40
2018-01-29T07:10:18.569Z,1.40
2018-01-29T07:12:46.855Z,1.45
2018-01-29T07:15:14.975Z,1.55
2018-01-29T07:17:43.147Z,1.50
2018-01-29T07:20:11.411Z,1.30
2018-01-29T07:22:40.307Z,1.40
2018-01-29T07:25:09.237Z,1.40
2018-01-29T07:27:37.427Z,1.60
2018-01-29T07:30:05.507Z,1.30
2018-01-29T07:32:35.355Z,1.60
2018-01-29T07:35:04.231Z,1.52
2018-01-29T07:37:32.343Z,1.58
2018-01-29T07:40:00.487Z,1.50
2018-01-29T07:42:29.386Z,1.27
2018-01-29T07:44:58.256Z,1.67
2018-01-29T07:47:27.138Z,1.30
2018-01-29T07:49:55.276Z,1.60
2018-01-29T07:52:23.443Z,1.35
2018-01-29T07:54:51.540Z,1.33
2018-01-29T07:57:19.658Z,1.40
2018-01-29T07:59:48.604Z,1.40
2018-01-29T08:02:16.931Z,1.40
2018-01-29T08:04:45.055Z,1.40
2018-01-29T08:07:13.175Z,1.48
2018-01-29T08:09:42.162Z,1.20
2018-01-29T08:12:11.036Z,1.60
2018-01-29T08:14:39.952Z,1.50
2018-01-29T08:17:08.107Z,1.20
2018-01-29T08:19:37.111Z,1.37
2018-01-29T08:22:05.293Z,1.30
2018-01-29T08:24:33.403Z,1.30
2018-01-29T08:27:01.531Z,1.70
2018-01-29T08:29:30.427Z,1.50
2018-01-29T08:31:58.555Z,1.30
2018-01-29T08:34:26.696Z,1.30
2018-01-29T08:36:54.807Z,1.60
2018-01-29T08:39:24.438Z,1.62
2018-01-29T08:41:53.380Z,1.58
2018-01-29T08:44:21.495Z,1.87
2018-01-29T08:46:50.435Z,1.77
2018-01-29T08:49:18.583Z,1.90
2018-01-29T08:51:46.759Z,1.70
2018-01-29T08:54:14.879Z,1.77
2018-01-29T08:56:42.990Z,1.73
2018-01-29T08:59:11.939Z,1.70
2018-01-29T09:01:40.059Z,1.90
2018-01-29T09:04:08.179Z,1.80
2018-01-29T09:06:36.319Z,1.80
2018-01-29T09:09:04.442Z,1.60
2018-01-29T09:11:32.612Z,1.80
2018-01-29T09:14:00.831Z,1.90
2018-01-29T09:16:28.953Z,1.73
2018-01-29T09:18:57.078Z,1.90
2018-01-29T09:21:25.351Z,2.03
2018-01-29T09:23:53.690Z,1.92
2018-01-29T09:26:21.803Z,1.85
2018-01-29T09:28:49.928Z,1.83
2018-01-29T09:31:18.101Z,1.95
2018-01-29T09:33:46.223Z,1.90
2018-01-29T09:36:14.386Z,2.10
2018-01-29T09:38:42.563Z,1.80
2018-01-29T09:41:10.739Z,1.90
2018-01-29T09:43:38.874Z,2.10
2018-01-29T09:46:08.535Z,1.95
2018-01-29T09:48:36.687Z,1.80
2018-01-29T09:51:05.571Z,2.08
2018-01-29T09:53:34.527Z,1.98
2018-01-29T09:56:02.622Z,2.22
2018-01-29T09:58:30.735Z,1.75
2018-01-29T10:00:58.903Z,2.03
2018-01-29T10:03:27.133Z,2.37
2018-01-29T10:05:55.314Z,2.30
2018-01-29T10:08:23.362Z,2.08
2018-01-29T10:10:51.533Z,2.12
2018-01-29T10:13:19.650Z,2.20
2018-01-29T10:15:47.822Z,1.92
2018-01-29T10:18:16.719Z,2.30
2018-01-29T10:20:44.831Z,2.05
2018-01-29T10:23:12.992Z,2.12
2018-01-29T10:25:41.104Z,2.10
2018-01-29T10:28:10.724Z,2.22
2018-01-29T10:30:39.626Z,2.05
2018-01-29T10:33:08.506Z,2.00
2018-01-29T10:35:37.394Z,2.80
2018-01-29T10:38:06.300Z,2.17
2018-01-29T10:40:35.176Z,2.60
2018-01-29T10:43:04.132Z,2.30
2018-01-29T10:45:32.280Z,2.47
2018-01-29T10:48:00.436Z,2.20
2018-01-29T10:50:28.740Z,2.30
2018-01-29T10:52:56.847Z,2.53
2018-01-29T10:55:24.966Z,2.50
2018-01-29T10:57:53.232Z,2.53
2018-01-29T11:00:21.393Z,2.30
2018-01-29T11:02:50.299Z,2.70
2018-01-29T11:05:18.417Z,2.50
2018-01-29T11:07:46.773Z,2.70
2018-01-29T11:10:14.859Z,2.45
2018-01-29T11:12:43.011Z,2.92
2018-01-29T11:15:11.225Z,2.90
2018-01-29T11:17:39.297Z,2.85
2018-01-29T11:20:07.443Z,2.58
2018-01-29T11:22:35.583Z,2.83
2018-01-29T11:25:03.959Z,2.92
2018-01-29T11:27:32.235Z,2.87
2018-01-29T11:30:00.359Z,2.95
2018-01-29T11:32:28.596Z,3.33
2018-01-29T11:34:56.721Z,3.30
2018-01-29T11:37:24.823Z,3.05
2018-01-29T11:39:53.823Z,3.12
2018-01-29T11:42:21.983Z,3.40
2018-01-29T11:44:50.903Z,3.10
2018-01-29T11:47:19.040Z,3.50
2018-01-29T11:49:47.927Z,3.30
2018-01-29T11:52:16.855Z,3.22
2018-01-29T11:54:45.824Z,3.40
2018-01-29T11:57:14.707Z,3.08
2018-01-29T11:59:43.601Z,3.10
2018-01-29T12:02:12.503Z,3.10
2018-01-29T12:04:40.707Z,3.00
2018-01-29T12:07:08.859Z,3.50
2018-01-29T12:09:36.975Z,3.60
2018-01-29T12:12:05.103Z,3.47
2018-01-29T12:14:33.263Z,2.90
2018-01-29T12:17:01.390Z,2.95
2018-01-29T12:19:29.515Z,3.45
2018-01-29T12:21:57.650Z,3.00
2018-01-29T12:24:25.798Z,2.90
2018-01-29T12:26:53.916Z,2.67
2018-01-29T12:29:22.827Z,2.70
2018-01-29T12:31:51.035Z,2.90
2018-01-29T12:34:19.582Z,2.53
2018-01-29T12:36:47.767Z,2.97
2018-01-29T12:39:15.932Z,3.08
2018-01-29T12:41:44.055Z,2.70
2018-01-29T12:44:12.224Z,2.72
2018-01-29T12:46:40.375Z,2.60
2018-01-29T12:49:08.498Z,2.53
2018-01-29T12:51:37.433Z,3.20
2018-01-29T12:54:05.602Z,3.00
2018-01-29T12:56:33.718Z,2.97
2018-01-29T12:59:01.930Z,2.80
2018-01-29T13:01:30.102Z,2.97
2018-01-29T13:03:58.244Z,3.20
2018-01-29T13:06:26.346Z,3.10
2018-01-29T13:08:54.462Z,3.20
2018-01-29T13:11:22.700Z,3.20
2018-01-29T13:13:50.746Z,3.37
2018-01-29T13:16:19.634Z,2.90
2018-01-29T13:18:48.516Z,3.40
2018-01-29T13:21:17.412Z,3.22
2018-01-29T13:23:46.419Z,3.10
2018-01-29T13:26:15.326Z,3.55
2018-01-29T13:28:43.447Z,3.28
2018-01-29T13:31:11.878Z,3.58
2018-01-29T13:33:40.250Z,3.15
2018-01-29T13:36:08.400Z,2.97
2018-01-29T13:38:38.102Z,3.20
2018-01-29T13:41:07.726Z,3.00
2018-01-29T13:43:36.641Z,2.75
2018-01-29T13:46:04.754Z,2.78
2018-01-29T13:48:32.862Z,2.30
2018-01-29T13:51:01.872Z,2.50
2018-01-29T13:53:29.998Z,2.15
2018-01-29T13:55:58.118Z,2.50
2018-01-29T13:58:26.250Z,2.12
2018-01-29T14:00:54.362Z,2.70
2018-01-29T14:03:22.532Z,2.50
2018-01-29T14:05:50.680Z,2.40
2018-01-29T14:08:19.571Z,3.05
2018-01-29T14:10:47.864Z,2.30
2018-01-29T14:13:16.764Z,2.33
2018-01-29T14:15:44.934Z,2.33
2018-01-29T14:18:14.636Z,2.10
2018-01-29T14:20:43.639Z,2.20
2018-01-29T14:23:11.826Z,2.25
2018-01-29T14:25:39.988Z,2.00
2018-01-29T14:28:08.153Z,2.62
2018-01-29T14:30:37.089Z,2.15
2018-01-29T14:33:05.203Z,2.28
2018-01-29T14:35:34.123Z,1.80
2018-01-29T14:38:02.271Z,2.15
2018-01-29T14:40:31.147Z,1.85
2018-01-29T14:42:59.367Z,1.92
2018-01-29T14:45:27.512Z,1.80
2018-01-29T14:47:56.419Z,1.70
2018-01-29T14:50:24.591Z,1.92
2018-01-29T14:52:52.780Z,1.67
2018-01-29T14:55:21.755Z,1.62
2018-01-29T14:57:49.887Z,1.62
2018-01-29T15:00:18.007Z,1.52
2018-01-29T15:02:46.164Z,1.40
2018-01-29T15:05:14.308Z,1.73
2018-01-29T15:07:42.423Z,1.87
2018-01-29T15:10:10.568Z,1.60
2018-01-29T15:12:38.697Z,1.48
2018-01-29T15:15:06.827Z,1.80
2018-01-29T15:17:35.703Z,1.20
2018-01-29T15:20:04.587Z,1.70
2018-01-29T15:22:33.486Z,1.85
2018-01-29T15:25:02.637Z,1.50
2018-01-29T15:27:30.766Z,1.40
2018-01-29T15:29:59.677Z,1.83
2018-01-29T15:32:27.847Z,1.60
2018-01-29T15:34:56.022Z,1.92
2018-01-29T15:37:24.149Z,1.45
2018-01-29T15:39:52.396Z,1.92
2018-01-29T15:42:20.534Z,1.73
2018-01-29T15:44:49.467Z,1.50
2018-01-29T15:47:17.582Z,1.58
2018-01-29T15:49:46.525Z,1.55
2018-01-29T15:52:14.622Z,1.87
2018-01-29T15:54:42.815Z,1.70
2018-01-29T15:57:10.939Z,1.90
2018-01-29T15:59:39.047Z,1.87
2018-01-29T16:02:07.373Z,2.00
2018-01-29T16:04:35.797Z,1.80
2018-01-29T16:07:03.986Z,1.85
2018-01-29T16:09:33.668Z,2.00
2018-01-29T16:12:02.015Z,2.20
2018-01-29T16:14:30.182Z,2.08
2018-01-29T16:16:58.332Z,2.30
2018-01-29T16:19:27.225Z,2.22
2018-01-29T16:21:55.326Z,2.17
2018-01-29T16:24:23.506Z,2.40
2018-01-29T16:26:51.634Z,2.67
2018-01-29T16:29:20.534Z,2.20
2018-01-29T16:31:49.420Z,2.60
2018-01-29T16:34:18.431Z,2.40
2018-01-29T16:36:47.356Z,2.65
2018-01-29T16:39:15.464Z,2.70
2018-01-29T16:41:44.350Z,2.45
2018-01-29T16:44:12.484Z,2.70
2018-01-29T16:46:40.606Z,3.08
2018-01-29T16:49:08.734Z,3.05
2018-01-29T16:51:36.825Z,3.03
2018-01-29T16:54:04.963Z,3.00
2018-01-29T16:56:33.128Z,3.47
2018-01-29T16:59:01.244Z,3.20
2018-01-29T17:01:30.093Z,2.87
2018-01-29T17:03:58.204Z,3.00
2018-01-29T17:06:26.331Z,3.10
2018-01-29T17:08:54.458Z,3.60
2018-01-29T17:11:22.578Z,3.30
2018-01-29T17:13:50.739Z,3.37
2018-01-29T17:16:19.658Z,4.18
2018-01-29T17:18:48.016Z,3.80
2018-01-29T17:21:16.222Z,4.05
2018-01-29T17:23:44.352Z,4.78
2018-01-29T17:26:13.241Z,4.05
2018-01-29T17:28:42.176Z,3.60
2018-01-29T17:31:10.283Z,3.65
2018-01-29T17:33:38.403Z,4.37
2018-01-29T17:36:06.544Z,4.43
2018-01-29T17:38:35.445Z,4.55
2018-01-29T17:41:04.328Z,4.62
2018-01-29T17:43:33.225Z,4.40
2018-01-29T17:46:02.124Z,4.70
2018-01-29T17:48:30.399Z,4.50
2018-01-29T17:50:58.511Z,5.15
2018-01-29T17:53:26.643Z,5.37
2018-01-29T17:55:55.647Z,4.85
2018-01-29T17:58:23.781Z,4.60
2018-01-29T18:00:52.781Z,4.97
2018-01-29T18:03:20.849Z,4.90
2018-01-29T18:05:49.051Z,5.25
2018-01-29T18:08:17.331Z,4.68
2018-01-29T18:10:45.473Z,4.60
2018-01-29T18:13:13.591Z,5.07
2018-01-29T18:15:41.743Z,4.78
2018-01-29T18:18:09.859Z,4.97
2018-01-29T18:20:38.291Z,5.00
2018-01-29T18:23:07.171Z,4.75
2018-01-29T18:25:36.279Z,5.28
2018-01-29T18:28:04.431Z,5.37
2018-01-29T18:30:32.573Z,5.20
2018-01-29T18:33:00.693Z,5.37
2018-01-29T18:35:29.591Z,4.80
2018-01-29T18:37:57.766Z,5.65
2018-01-29T18:40:25.940Z,5.20
2018-01-29T18:42:54.071Z,6.20
2018-01-29T18:45:22.220Z,5.80
2018-01-29T18:47:50.398Z,5.93
2018-01-29T18:50:18.547Z,3.95
2018-01-29T18:52:46.674Z,3.00
2018-01-29T18:55:16.286Z,2.28
2018-01-29T18:57:45.227Z,2.00
2018-01-29T19:00:13.481Z,2.12
2018-01-29T19:02:41.591Z,2.50
2018-01-29T19:05:09.702Z,2.62
2018-01-29T19:07:38.618Z,2.70
2018-01-29T19:10:07.248Z,2.92
2018-01-29T19:12:35.367Z,3.15
2018-01-29T19:15:04.235Z,3.70
2018-01-29T19:17:33.245Z,3.58
2018-01-29T19:20:02.347Z,3.62
2018-01-29T19:22:31.262Z,3.67
2018-01-29T19:24:59.615Z,4.18
2018-01-29T19:27:27.802Z,4.70
2018-01-29T19:29:55.964Z,5.20
2018-01-29T19:32:24.075Z,4.80
2018-01-29T19:34:52.182Z,4.43
2018-01-29T19:37:20.362Z,4.35
2018-01-29T19:39:49.404Z,5.10
2018-01-29T19:42:17.514Z,4.40
2018-01-29T19:44:47.137Z,4.10
2018-01-29T19:47:16.046Z,3.75
2018-01-29T19:49:45.046Z,3.80
2018-01-29T19:52:13.168Z,3.20
2018-01-29T19:54:41.270Z,3.40
2018-01-29T19:57:10.204Z,3.45
2018-01-29T19:59:38.450Z,3.80
2018-01-29T20:02:06.558Z,3.65
2018-01-29T20:04:34.660Z,4.32
2018-01-29T20:07:02.822Z,5.32
2018-01-29T20:09:31.044Z,4.83
2018-01-29T20:11:59.214Z,5.10
2018-01-29T20:14:27.332Z,5.32
2018-01-29T20:16:55.450Z,5.07
2018-01-29T20:19:24.484Z,4.87
2018-01-29T20:21:52.642Z,5.75
2018-01-29T20:24:20.806Z,6.82
2018-01-29T20:26:48.910Z,6.43
2018-01-29T20:29:17.042Z,5.70
2018-01-29T20:31:46.670Z,5.65
2018-01-29T20:34:14.788Z,6.18
2018-01-29T20:36:42.902Z,5.53
2018-01-29T20:39:11.042Z,5.78
2018-01-29T20:41:39.142Z,5.30
2018-01-29T20:44:07.246Z,5.10
2018-01-29T20:46:35.386Z,5.18
2018-01-29T20:49:04.262Z,5.60
2018-01-29T20:51:33.147Z,5.30
2018-01-29T20:54:02.056Z,5.35
2018-01-29T20:56:30.950Z,5.28
2018-01-29T20:58:59.112Z,5.28
2018-01-29T21:01:27.998Z,5.35
2018-01-29T21:03:56.905Z,5.80
2018-01-29T21:06:25.772Z,6.00
2018-01-29T21:08:54.713Z,5.85
2018-01-29T21:11:22.823Z,5.43
2018-01-29T21:13:50.938Z,5.93
2018-01-29T21:16:19.112Z,6.28
2018-01-29T21:18:47.379Z,6.37
2018-01-29T21:21:16.333Z,6.90
2018-01-29T21:23:44.440Z,6.65
2018-01-29T21:26:13.430Z,7.65
2018-01-29T21:28:42.312Z,7.05
2018-01-29T21:31:11.223Z,7.28
2018-01-29T21:33:39.327Z,7.85
2018-01-29T21:36:07.517Z,7.10
2018-01-29T21:38:35.839Z,7.62
2018-01-29T21:41:04.719Z,7.57
2018-01-29T21:43:33.590Z,7.35
2018-01-29T21:46:01.708Z,8.32
2018-01-29T21:48:29.822Z,8.30
2018-01-29T21:50:57.951Z,8.85
2018-01-29T21:53:26.231Z,9.50
2018-01-29T21:55:54.383Z,9.13
2018-01-29T21:58:23.266Z,10.27
2018-01-29T22:00:52.167Z,9.50
2018-01-29T22:03:21.045Z,9.13
2018-01-29T22:05:49.927Z,9.35
2018-01-29T22:08:18.062Z,9.57
2018-01-29T22:10:46.211Z,9.07
2018-01-29T22:13:14.340Z,10.88
2018-01-29T22:15:42.465Z,11.25
2018-01-29T22:18:10.637Z,11.05
2018-01-29T22:20:38.815Z,11.23
2018-01-29T22:23:06.959Z,11.70
2018-01-29T22:25:35.073Z,11.18
2018-01-29T22:28:03.317Z,11.10
2018-01-29T22:30:31.435Z,12.30
2018-01-29T22:32:59.567Z,11.27
2018-01-29T22:35:27.681Z,11.25
2018-01-29T22:37:55.791Z,12.20
2018-01-29T22:40:24.683Z,13.00
2018-01-29T22:42:53.566Z,11.80
2018-01-29T22:45:22.438Z,11.82
2018-01-29T22:47:51.341Z,12.57
2018-01-29T22:50:20.434Z,12.77
2018-01-29T22:52:49.371Z,12.98
2018-01-29T22:55:17.470Z,12.50
2018-01-29T22:57:45.610Z,13.27
2018-01-29T23:00:17.858Z,13.38
2018-01-29T23:02:46.018Z,13.20
2018-01-29T23:05:14.899Z,13.38
2018-01-29T23:07:43.775Z,13.05
2018-01-29T23:10:13.419Z,13.70
2018-01-29T23:12:41.543Z,14.55
2018-01-29T23:15:09.666Z,13.68
2018-01-29T23:17:37.774Z,13.65
2018-01-29T23:20:05.905Z,14.07
2018-01-29T23:22:34.922Z,13.55
2018-01-29T23:25:03.768Z,13.75
2018-01-29T23:27:31.884Z,13.70
2018-01-29T23:30:00.021Z,14.40
2018-01-29T23:32:29.032Z,13.45
2018-01-29T23:34:57.146Z,12.37
2018-01-29T23:37:25.262Z,12.90
2018-01-29T23:39:54.162Z,13.00
2018-01-29T23:42:23.113Z,12.80
2018-01-29T23:44:51.170Z,12.45
2018-01-29T23:47:19.280Z,12.35
2018-01-29T23:49:48.182Z,11.80
2018-01-29T23:52:17.276Z,12.40
2018-01-29T23:54:46.150Z,11.73
2018-01-29T23:57:15.032Z,12.43
2018-01-29T23:59:43.234Z,11.65
